OEDF

King Fahd International Airport

Ad Dammam, Saudi Arabia
TAF OEDF 162055Z 1700/1806 17014KT 8000 NSC BECMG 1705/1707 27015G25KT 5000 BLDU PROB30 TEMPO 1706/1716 2000
Issued Valid From Valid To
Jan-16 @ 20:55 UTC
(8 hours ago)
Jan-17 @ 00:00 UTC
(5 hours ago)
Jan-18 @ 06:00 UTC
(-1 days ago)
Jan-17 @ 00:00 to Jan-17 @ 05:00
TAF OEDF 162055Z 1700/1806 17014KT 8000 NSC
Wind Visibility Clouds
170° at 14 knots 7,998 meters
  • No significant clouds
Becoming Jan-17 @ 05:00 to Jan-18 @ 06:00
BECMG 1705/1707 27015G25KT 5000 BLDU
Wind Visibility Clouds Conditions
270° at 15 knots
 Gusting to 25 knots
5,005 meters
  • No significant clouds
  • Blowing
  • Dust
Temporary  (Probability 30%) Jan-17 @ 06:00 to Jan-17 @ 16:00
PROB30 TEMPO 1706/1716 2000
Visibility
1,996 meters
TAF OEDF 162055Z 1700/1806 17014KT 8000 NSC BECMG 1705/1707 27015G25KT 5000 BLDU PROB30 TEMPO 1706/1716 2000
Issued Jan-16 @ 20:55 UTC
(8 hours ago)
Valid From Jan-17 @ 00:00 UTC
(5 hours ago)
Valid To Jan-18 @ 06:00 UTC
(-1 days ago)
Jan-17 @ 00:00 - Jan-17 @ 05:00
Wind Visibility
170° at 14 knots 7,998 meters
Clouds
  • No significant clouds
Becoming Jan-17 @ 05:00 - Jan-18 @ 06:00
Wind Visibility
270° at 15 knots
 Gusting to 25 knots
5,005 meters
Clouds
  • No significant clouds
Conditions
  • Blowing
  • Dust
Probability 30% Temporary Jan-17 @ 06:00 - Jan-17 @ 16:00